Airport Name : Congonhas

Other Name : Congonhas

ICAO : SBSP

IATA : CGH

FAA :

Latitude : -23.626692

Longitude : -46.655375

Country : Brazil

Local Date and Time : 30 Jan 2023 17:12

 

TAF (Terminal Aerodrome Forecast)

TAF SBSP 301600Z 3018/3106 32010KT 9999 BKN040 FEW045TCU TX25/3018Z TN20/3105Z TEMPO 3018/3022 27007KT TSRA BKN020 FEW040CB BECMG 3022/3024 02004KT SCT010 RMK PGL

 

METAR (METeorological Aerodrome Report)

SBSP 302000Z 32009KT 9999 SCT040 27/15 Q1013

SBSP 301900Z 33011KT 9999 SCT043 27/16 Q1013

SBSP 301800Z 32011KT 9999 SCT043 28/16 Q1013

SBSP 301700Z 33013KT 9999 SCT033 26/18 Q1014

To Charter a Jet Click here.